sensor_id;sensor_type;location;lat;lon;timestamp;pressure;altitude;pressure_sealevel;temperature;humidity
44481;BME280;30184;42.018;23.670;2022-07-25T00:00:08;91773.56;;;19.58;84.39
44481;BME280;30184;42.018;23.670;2022-07-25T00:02:37;91620.81;;;18.38;84.72
44481;BME280;30184;42.018;23.670;2022-07-25T00:05:07;91599.94;;;18.25;85.39
44481;BME280;30184;42.018;23.670;2022-07-25T00:07:36;91391.78;;;16.81;85.04
44481;BME280;30184;42.018;23.670;2022-07-25T00:10:06;91510.13;;;17.52;85.89
44481;BME280;30184;42.018;23.670;2022-07-25T00:12:35;91597.69;;;17.80;86.94
44481;BME280;30184;42.018;23.670;2022-07-25T00:15:07;91742.19;;;19.15;86.64
44481;BME280;30184;42.018;23.670;2022-07-25T00:17:38;91745.88;;;19.12;86.11
44481;BME280;30184;42.018;23.670;2022-07-25T00:20:08;91739.63;;;19.12;85.52
44481;BME280;30184;42.018;23.670;2022-07-25T00:22:37;91761.44;;;19.15;85.37
44481;BME280;30184;42.018;23.670;2022-07-25T00:25:06;91562.66;;;17.89;86.84
44481;BME280;30184;42.018;23.670;2022-07-25T00:27:36;91732.72;;;19.01;86.98
44481;BME280;30184;42.018;23.670;2022-07-25T00:30:07;91660.03;;;18.53;88.59
44481;BME280;30184;42.018;23.670;2022-07-25T00:32:37;91638.56;;;17.63;87.67
44481;BME280;30184;42.018;23.670;2022-07-25T00:35:06;91674.91;;;18.61;88.02
44481;BME280;30184;42.018;23.670;2022-07-25T00:37:35;91463.47;;;16.40;88.68
44481;BME280;30184;42.018;23.670;2022-07-25T00:40:05;91710.84;;;18.92;88.63
44481;BME280;30184;42.018;23.670;2022-07-25T00:42:34;91677.28;;;18.39;88.86
44481;BME280;30184;42.018;23.670;2022-07-25T00:45:04;91425.56;;;16.48;88.86
44481;BME280;30184;42.018;23.670;2022-07-25T00:47:35;91722.78;;;19.04;87.69
44481;BME280;30184;42.018;23.670;2022-07-25T00:50:05;91754.31;;;18.15;87.45
44481;BME280;30184;42.018;23.670;2022-07-25T00:52:35;91443.38;;;16.43;86.80
44481;BME280;30184;42.018;23.670;2022-07-25T00:55:05;91735.09;;;19.09;88.16
44481;BME280;30184;42.018;23.670;2022-07-25T00:57:34;91566.72;;;17.50;88.05
44481;BME280;30184;42.018;23.670;2022-07-25T01:00:06;91724.75;;;19.04;89.03
44481;BME280;30184;42.018;23.670;2022-07-25T01:02:37;91665.91;;;18.60;88.93
44481;BME280;30184;42.018;23.670;2022-07-25T01:05:07;91718.72;;;18.99;88.42
44481;BME280;30184;42.018;23.670;2022-07-25T01:07:37;91703.72;;;19.00;89.26
44481;BME280;30184;42.018;23.670;2022-07-25T01:10:08;91713.22;;;18.99;88.38
44481;BME280;30184;42.018;23.670;2022-07-25T01:12:46;91590.00;;;18.13;88.01
44481;BME280;30184;42.018;23.670;2022-07-25T01:15:16;91337.22;;;15.85;88.23
44481;BME280;30184;42.018;23.670;2022-07-25T01:17:46;91732.63;;;18.32;88.59
44481;BME280;30184;42.018;23.670;2022-07-25T01:20:17;91464.38;;;17.29;87.94
44481;BME280;30184;42.018;23.670;2022-07-25T01:22:47;91722.81;;;18.89;88.46
44481;BME280;30184;42.018;23.670;2022-07-25T01:25:17;91679.38;;;18.58;88.83
44481;BME280;30184;42.018;23.670;2022-07-25T01:27:48;91620.09;;;17.64;89.60
44481;BME280;30184;42.018;23.670;2022-07-25T01:30:21;91544.94;;;17.17;88.95
44481;BME280;30184;42.018;23.670;2022-07-25T01:32:51;91640.00;;;18.03;89.70
44481;BME280;30184;42.018;23.670;2022-07-25T01:35:22;91710.72;;;18.52;90.43
44481;BME280;30184;42.018;23.670;2022-07-25T01:37:51;91598.97;;;17.40;89.82
44481;BME280;30184;42.018;23.670;2022-07-25T01:40:21;91565.69;;;17.47;89.48
44481;BME280;30184;42.018;23.670;2022-07-25T01:42:50;91715.81;;;18.44;89.23
44481;BME280;30184;42.018;23.670;2022-07-25T01:45:22;91710.53;;;18.41;89.50
44481;BME280;30184;42.018;23.670;2022-07-25T01:47:51;91405.34;;;15.83;88.91
44481;BME280;30184;42.018;23.670;2022-07-25T01:50:22;91566.94;;;17.08;89.23
44481;BME280;30184;42.018;23.670;2022-07-25T01:52:51;91697.75;;;18.23;89.75
44481;BME280;30184;42.018;23.670;2022-07-25T01:55:20;91633.69;;;16.81;90.17
44481;BME280;30184;42.018;23.670;2022-07-25T01:57:49;91700.22;;;18.21;90.76
44481;BME280;30184;42.018;23.670;2022-07-25T02:00:18;91706.00;;;18.23;91.35
44481;BME280;30184;42.018;23.670;2022-07-25T02:02:47;91699.00;;;18.22;91.50
44481;BME280;30184;42.018;23.670;2022-07-25T02:05:37;91720.88;;;18.16;91.16
44481;BME280;30184;42.018;23.670;2022-07-25T02:08:06;91610.78;;;17.46;89.97
44481;BME280;30184;42.018;23.670;2022-07-25T02:10:35;91400.28;;;15.91;89.83
44481;BME280;30184;42.018;23.670;2022-07-25T02:13:05;91449.91;;;16.22;89.09
44481;BME280;30184;42.018;23.670;2022-07-25T02:15:34;91699.81;;;17.84;89.49
44481;BME280;30184;42.018;23.670;2022-07-25T02:18:04;91574.63;;;16.56;88.95
44481;BME280;30184;42.018;23.670;2022-07-25T02:20:33;91304.13;;;15.03;89.22
44481;BME280;30184;42.018;23.670;2022-07-25T02:23:03;91488.03;;;15.45;90.58
44481;BME280;30184;42.018;23.670;2022-07-25T02:25:33;91800.47;;;17.87;91.06
44481;BME280;30184;42.018;23.670;2022-07-25T02:28:02;91544.88;;;16.88;91.34
44481;BME280;30184;42.018;23.670;2022-07-25T02:30:32;91273.41;;;14.84;91.35
44481;BME280;30184;42.018;23.670;2022-07-25T02:33:01;91618.22;;;16.45;91.81
44481;BME280;30184;42.018;23.670;2022-07-25T02:35:30;91467.00;;;16.17;91.82
44481;BME280;30184;42.018;23.670;2022-07-25T02:38:00;91740.72;;;17.34;90.02
44481;BME280;30184;42.018;23.670;2022-07-25T02:40:30;91412.59;;;15.86;89.50
44481;BME280;30184;42.018;23.670;2022-07-25T02:42:59;91689.59;;;17.70;89.85
44481;BME280;30184;42.018;23.670;2022-07-25T02:45:28;91321.97;;;15.22;89.66
44481;BME280;30184;42.018;23.670;2022-07-25T02:47:57;91690.53;;;17.67;90.00
44481;BME280;30184;42.018;23.670;2022-07-25T02:50:26;91452.59;;;15.60;89.91
44481;BME280;30184;42.018;23.670;2022-07-25T02:52:55;91469.00;;;15.60;90.35
44481;BME280;30184;42.018;23.670;2022-07-25T02:55:24;91556.25;;;16.48;91.17
44481;BME280;30184;42.018;23.670;2022-07-25T02:57:54;91632.41;;;16.91;90.26
44481;BME280;30184;42.018;23.670;2022-07-25T03:00:24;91468.34;;;15.74;89.87
44481;BME280;30184;42.018;23.670;2022-07-25T03:02:53;91579.59;;;16.67;90.52
44481;BME280;30184;42.018;23.670;2022-07-25T03:05:22;91621.34;;;16.62;90.54
44481;BME280;30184;42.018;23.670;2022-07-25T03:07:51;91589.50;;;16.64;90.87
44481;BME280;30184;42.018;23.670;2022-07-25T03:10:20;91549.94;;;16.09;91.13
44481;BME280;30184;42.018;23.670;2022-07-25T03:12:49;91557.50;;;15.81;91.04
44481;BME280;30184;42.018;23.670;2022-07-25T03:15:20;91667.06;;;17.03;90.86
44481;BME280;30184;42.018;23.670;2022-07-25T03:17:49;91517.19;;;15.90;91.03
44481;BME280;30184;42.018;23.670;2022-07-25T03:20:18;91371.97;;;15.46;91.12
44481;BME280;30184;42.018;23.670;2022-07-25T03:22:47;91480.25;;;15.86;91.53
44481;BME280;30184;42.018;23.670;2022-07-25T03:25:16;91497.63;;;16.07;90.54
44481;BME280;30184;42.018;23.670;2022-07-25T03:27:45;91598.66;;;16.61;91.30
44481;BME280;30184;42.018;23.670;2022-07-25T03:30:14;91397.13;;;15.26;90.69
44481;BME280;30184;42.018;23.670;2022-07-25T03:32:45;91446.16;;;14.79;90.66
44481;BME280;30184;42.018;23.670;2022-07-25T03:35:14;91499.38;;;15.62;91.11
44481;BME280;30184;42.018;23.670;2022-07-25T03:37:43;91465.81;;;15.10;91.18
44481;BME280;30184;42.018;23.670;2022-07-25T03:40:12;91449.22;;;14.44;91.00
44481;BME280;30184;42.018;23.670;2022-07-25T03:42:42;91575.97;;;15.62;91.62
44481;BME280;30184;42.018;23.670;2022-07-25T03:45:11;91523.56;;;15.54;91.85
44481;BME280;30184;42.018;23.670;2022-07-25T03:47:40;91511.06;;;14.93;91.70
44481;BME280;30184;42.018;23.670;2022-07-25T03:50:11;91692.53;;;17.19;91.75
44481;BME280;30184;42.018;23.670;2022-07-25T03:52:40;91595.03;;;16.55;91.31
44481;BME280;30184;42.018;23.670;2022-07-25T03:55:10;91695.34;;;17.09;91.89
44481;BME280;30184;42.018;23.670;2022-07-25T03:57:39;91555.38;;;16.18;91.08
44481;BME280;30184;42.018;23.670;2022-07-25T04:00:09;91690.31;;;17.32;91.55
44481;BME280;30184;42.018;23.670;2022-07-25T04:02:39;91743.19;;;17.32;91.51
44481;BME280;30184;42.018;23.670;2022-07-25T04:05:09;91727.59;;;17.38;92.11
44481;BME280;30184;42.018;23.670;2022-07-25T04:07:39;91392.53;;;15.32;92.50
44481;BME280;30184;42.018;23.670;2022-07-25T04:10:09;91647.50;;;17.10;91.99
44481;BME280;30184;42.018;23.670;2022-07-25T04:12:38;91551.94;;;15.75;91.46
44481;BME280;30184;42.018;23.670;2022-07-25T04:15:08;91485.09;;;15.49;91.46
44481;BME280;30184;42.018;23.670;2022-07-25T04:17:37;91651.66;;;17.06;91.93
44481;BME280;30184;42.018;23.670;2022-07-25T04:20:07;91523.13;;;16.13;91.93
44481;BME280;30184;42.018;23.670;2022-07-25T04:22:36;91592.66;;;16.96;91.56
44481;BME280;30184;42.018;23.670;2022-07-25T04:25:10;91436.72;;;15.97;91.11
44481;BME280;30184;42.018;23.670;2022-07-25T04:27:39;91616.28;;;16.93;90.28
44481;BME280;30184;42.018;23.670;2022-07-25T04:30:09;91524.13;;;16.00;90.51
44481;BME280;30184;42.018;23.670;2022-07-25T04:32:38;91640.34;;;16.89;90.87
44481;BME280;30184;42.018;23.670;2022-07-25T04:35:08;91729.34;;;17.50;89.74
44481;BME280;30184;42.018;23.670;2022-07-25T04:37:37;91364.47;;;14.90;89.59
44481;BME280;30184;42.018;23.670;2022-07-25T04:40:07;91550.84;;;16.38;89.13
44481;BME280;30184;42.018;23.670;2022-07-25T04:42:39;91676.16;;;17.86;89.74
44481;BME280;30184;42.018;23.670;2022-07-25T04:45:09;91692.09;;;17.97;89.55
44481;BME280;30184;42.018;23.670;2022-07-25T04:47:38;91559.09;;;17.15;88.68
44481;BME280;30184;42.018;23.670;2022-07-25T04:50:08;91565.91;;;16.34;88.35
44481;BME280;30184;42.018;23.670;2022-07-25T04:52:37;91684.50;;;18.07;88.70
44481;BME280;30184;42.018;23.670;2022-07-25T04:55:07;91622.81;;;17.49;88.55
44481;BME280;30184;42.018;23.670;2022-07-25T04:57:37;91658.19;;;18.15;87.84
44481;BME280;30184;42.018;23.670;2022-07-25T05:00:09;91674.72;;;18.35;87.18
44481;BME280;30184;42.018;23.670;2022-07-25T05:02:39;91683.91;;;18.47;87.53
44481;BME280;30184;42.018;23.670;2022-07-25T05:05:09;91483.00;;;16.33;86.23
44481;BME280;30184;42.018;23.670;2022-07-25T05:07:38;91369.66;;;16.16;85.76
44481;BME280;30184;42.018;23.670;2022-07-25T05:10:08;91436.38;;;16.81;85.59
44481;BME280;30184;42.018;23.670;2022-07-25T05:12:37;91613.16;;;18.27;85.61
44481;BME280;30184;42.018;23.670;2022-07-25T05:15:09;91660.91;;;18.30;85.54
44481;BME280;30184;42.018;23.670;2022-07-25T05:17:38;91541.19;;;17.73;85.87
44481;BME280;30184;42.018;23.670;2022-07-25T05:20:09;91670.38;;;19.13;84.33
44481;BME280;30184;42.018;23.670;2022-07-25T05:22:39;91666.69;;;19.57;83.25
44481;BME280;30184;42.018;23.670;2022-07-25T05:25:09;91455.53;;;18.59;81.66
44481;BME280;30184;42.018;23.670;2022-07-25T05:27:39;91647.22;;;20.38;79.71
44481;BME280;30184;42.018;23.670;2022-07-25T05:30:11;91464.03;;;19.33;76.34
44481;BME280;30184;42.018;23.670;2022-07-25T05:32:41;91466.97;;;19.82;74.15
44481;BME280;30184;42.018;23.670;2022-07-25T05:35:10;91313.66;;;19.25;73.95
44481;BME280;30184;42.018;23.670;2022-07-25T05:37:39;91376.78;;;19.77;72.03
44481;BME280;30184;42.018;23.670;2022-07-25T05:40:08;91379.03;;;19.72;69.88
44481;BME280;30184;42.018;23.670;2022-07-25T05:42:37;91380.38;;;20.42;69.23
44481;BME280;30184;42.018;23.670;2022-07-25T05:45:07;91420.75;;;20.02;69.37
44481;BME280;30184;42.018;23.670;2022-07-25T05:47:38;91627.00;;;22.52;68.05
44481;BME280;30184;42.018;23.670;2022-07-25T05:50:08;91578.97;;;21.94;69.64
44481;BME280;30184;42.018;23.670;2022-07-25T05:52:37;91625.75;;;22.31;68.66
44481;BME280;30184;42.018;23.670;2022-07-25T05:55:06;91618.97;;;22.32;67.91
44481;BME280;30184;42.018;23.670;2022-07-25T05:57:35;91478.53;;;20.82;67.73
44481;BME280;30184;42.018;23.670;2022-07-25T06:00:06;91344.22;;;20.18;70.01
44481;BME280;30184;42.018;23.670;2022-07-25T06:02:35;91630.50;;;22.14;69.58
44481;BME280;30184;42.018;23.670;2022-07-25T06:05:07;91674.06;;;21.65;69.99
44481;BME280;30184;42.018;23.670;2022-07-25T06:07:36;91315.22;;;19.37;71.14
44481;BME280;30184;42.018;23.670;2022-07-25T06:10:08;91728.06;;;21.72;71.10
44481;BME280;30184;42.018;23.670;2022-07-25T06:12:37;91494.00;;;20.63;72.74
44481;BME280;30184;42.018;23.670;2022-07-25T06:15:07;91379.66;;;19.56;72.50
44481;BME280;30184;42.018;23.670;2022-07-25T06:17:36;91725.22;;;21.55;71.96
44481;BME280;30184;42.018;23.670;2022-07-25T06:20:07;91449.28;;;20.42;70.97
44481;BME280;30184;42.018;23.670;2022-07-25T06:22:37;91528.13;;;20.71;70.03
44481;BME280;30184;42.018;23.670;2022-07-25T06:25:07;91558.59;;;20.93;70.96
44481;BME280;30184;42.018;23.670;2022-07-25T06:27:36;91610.81;;;21.78;71.18
44481;BME280;30184;42.018;23.670;2022-07-25T06:30:07;91464.00;;;20.76;70.05
44481;BME280;30184;42.018;23.670;2022-07-25T06:32:45;91387.88;;;19.51;70.04
44481;BME280;30184;42.018;23.670;2022-07-25T06:35:16;91288.34;;;19.58;68.74
44481;BME280;30184;42.018;23.670;2022-07-25T06:37:45;91606.31;;;21.10;69.92
44481;BME280;30184;42.018;23.670;2022-07-25T06:40:15;91219.53;;;19.58;68.29
44481;BME280;30184;42.018;23.670;2022-07-25T06:42:46;91605.41;;;22.23;67.54
44481;BME280;30184;42.018;23.670;2022-07-25T06:45:15;91593.56;;;22.28;67.40
44481;BME280;30184;42.018;23.670;2022-07-25T06:47:45;91488.41;;;21.16;65.26
44481;BME280;30184;42.018;23.670;2022-07-25T06:50:19;91415.22;;;21.27;66.37
44481;BME280;30184;42.018;23.670;2022-07-25T06:52:48;91558.09;;;21.76;66.48
44481;BME280;30184;42.018;23.670;2022-07-25T06:55:17;91319.25;;;20.43;65.43
44481;BME280;30184;42.018;23.670;2022-07-25T06:57:46;91607.38;;;22.17;65.52
44481;BME280;30184;42.018;23.670;2022-07-25T07:00:16;91364.22;;;21.05;65.67
44481;BME280;30184;42.018;23.670;2022-07-25T07:02:59;91598.09;;;22.20;64.51
44481;BME280;30184;42.018;23.670;2022-07-25T07:05:32;91560.81;;;22.93;64.61
44481;BME280;30184;42.018;23.670;2022-07-25T07:08:03;91558.50;;;23.08;65.84
44481;BME280;30184;42.018;23.670;2022-07-25T07:10:32;91618.59;;;23.19;64.55
44481;BME280;30184;42.018;23.670;2022-07-25T07:13:03;91534.78;;;22.33;64.43
44481;BME280;30184;42.018;23.670;2022-07-25T07:15:32;91577.94;;;22.81;64.41
44481;BME280;30184;42.018;23.670;2022-07-25T07:18:02;91305.84;;;21.29;63.91
44481;BME280;30184;42.018;23.670;2022-07-25T07:20:33;91553.94;;;23.22;63.36
44481;BME280;30184;42.018;23.670;2022-07-25T07:23:02;91329.41;;;21.36;63.34
44481;BME280;30184;42.018;23.670;2022-07-25T07:25:32;91563.09;;;23.99;62.89
44481;BME280;30184;42.018;23.670;2022-07-25T07:28:02;91315.03;;;22.45;64.34
44481;BME280;30184;42.018;23.670;2022-07-25T07:30:32;91507.50;;;23.51;62.48
44481;BME280;30184;42.018;23.670;2022-07-25T07:33:18;91291.38;;;21.92;63.49
44481;BME280;30184;42.018;23.670;2022-07-25T07:35:49;91552.88;;;24.54;64.77
44481;BME280;30184;42.018;23.670;2022-07-25T07:38:18;91388.69;;;23.41;62.12
44481;BME280;30184;42.018;23.670;2022-07-25T07:40:48;91389.03;;;23.27;60.75
44481;BME280;30184;42.018;23.670;2022-07-25T07:43:17;91576.22;;;24.64;61.94
44481;BME280;30184;42.018;23.670;2022-07-25T07:45:46;91341.78;;;23.55;62.76
44481;BME280;30184;42.018;23.670;2022-07-25T07:48:15;91471.63;;;23.99;60.04
44481;BME280;30184;42.018;23.670;2022-07-25T07:50:44;91337.84;;;23.99;61.77
44481;BME280;30184;42.018;23.670;2022-07-25T07:53:14;91357.66;;;24.33;59.39
44481;BME280;30184;42.018;23.670;2022-07-25T07:55:43;91486.44;;;24.62;57.92
44481;BME280;30184;42.018;23.670;2022-07-25T07:58:13;91544.97;;;25.93;57.38
44481;BME280;30184;42.018;23.670;2022-07-25T08:00:44;91337.78;;;23.80;56.33
44481;BME280;30184;42.018;23.670;2022-07-25T08:03:16;91537.88;;;26.11;54.81
44481;BME280;30184;42.018;23.670;2022-07-25T08:05:46;91357.09;;;24.77;52.76
44481;BME280;30184;42.018;23.670;2022-07-25T08:08:17;91133.16;;;23.65;52.20
44481;BME280;30184;42.018;23.670;2022-07-25T08:10:47;91519.22;;;25.74;49.14
44481;BME280;30184;42.018;23.670;2022-07-25T08:13:17;91327.78;;;25.19;51.54
44481;BME280;30184;42.018;23.670;2022-07-25T08:15:48;91479.00;;;25.93;48.36
44481;BME280;30184;42.018;23.670;2022-07-25T08:18:19;91193.19;;;24.38;47.95
44481;BME280;30184;42.018;23.670;2022-07-25T08:20:49;91349.63;;;25.10;48.18
44481;BME280;30184;42.018;23.670;2022-07-25T08:23:20;91566.63;;;26.96;47.48
44481;BME280;30184;42.018;23.670;2022-07-25T08:25:49;91527.94;;;26.92;46.00
44481;BME280;30184;42.018;23.670;2022-07-25T08:28:19;91293.47;;;25.17;48.45
44481;BME280;30184;42.018;23.670;2022-07-25T08:30:48;91341.66;;;25.19;47.15
44481;BME280;30184;42.018;23.670;2022-07-25T08:33:18;91471.38;;;26.71;47.91
44481;BME280;30184;42.018;23.670;2022-07-25T08:35:49;91397.50;;;26.44;45.86
44481;BME280;30184;42.018;23.670;2022-07-25T08:38:23;91559.13;;;27.04;45.87
44481;BME280;30184;42.018;23.670;2022-07-25T08:40:53;91466.53;;;26.71;45.09
44481;BME280;30184;42.018;23.670;2022-07-25T08:43:23;91439.25;;;27.09;39.25
44481;BME280;30184;42.018;23.670;2022-07-25T08:45:53;91368.81;;;26.49;39.73
44481;BME280;30184;42.018;23.670;2022-07-25T08:48:24;91454.47;;;27.08;40.24
44481;BME280;30184;42.018;23.670;2022-07-25T08:50:55;91126.25;;;25.37;41.35
44481;BME280;30184;42.018;23.670;2022-07-25T08:53:26;91456.63;;;27.97;39.95
44481;BME280;30184;42.018;23.670;2022-07-25T08:55:58;91575.31;;;28.18;37.68
44481;BME280;30184;42.018;23.670;2022-07-25T08:58:29;91288.47;;;26.92;38.28
44481;BME280;30184;42.018;23.670;2022-07-25T09:00:59;91211.00;;;25.96;36.92
44481;BME280;30184;42.018;23.670;2022-07-25T09:03:34;91215.13;;;26.43;36.15
44481;BME280;30184;42.018;23.670;2022-07-25T09:06:16;91332.91;;;27.53;37.11
44481;BME280;30184;42.018;23.670;2022-07-25T09:08:54;91461.34;;;28.43;35.34
44481;BME280;30184;42.018;23.670;2022-07-25T09:11:29;91452.28;;;28.50;35.74
44481;BME280;30184;42.018;23.670;2022-07-25T09:14:00;91100.84;;;26.07;35.64
44481;BME280;30184;42.018;23.670;2022-07-25T09:16:30;91166.19;;;26.26;36.12
44481;BME280;30184;42.018;23.670;2022-07-25T09:19:11;91391.66;;;27.89;35.88
44481;BME280;30184;42.018;23.670;2022-07-25T09:21:42;91197.00;;;26.96;34.55
44481;BME280;30184;42.018;23.670;2022-07-25T09:24:17;91381.03;;;27.87;34.06
44481;BME280;30184;42.018;23.670;2022-07-25T09:26:50;91464.06;;;29.13;35.33
44481;BME280;30184;42.018;23.670;2022-07-25T09:29:22;91504.16;;;28.87;37.55
44481;BME280;30184;42.018;23.670;2022-07-25T09:31:53;91462.56;;;29.12;32.35
44481;BME280;30184;42.018;23.670;2022-07-25T09:34:30;91467.50;;;28.91;30.31
44481;BME280;30184;42.018;23.670;2022-07-25T09:37:02;91436.88;;;27.95;33.21
44481;BME280;30184;42.018;23.670;2022-07-25T09:39:37;91309.44;;;27.27;37.31
44481;BME280;30184;42.018;23.670;2022-07-25T09:42:16;91259.16;;;26.78;36.70
44481;BME280;30184;42.018;23.670;2022-07-25T09:45:04;91380.03;;;27.98;36.19
44481;BME280;30184;42.018;23.670;2022-07-25T09:47:36;91109.72;;;26.05;36.29
44481;BME280;30184;42.018;23.670;2022-07-25T09:50:06;91173.00;;;26.25;35.33
44481;BME280;30184;42.018;23.670;2022-07-25T09:52:39;91054.41;;;26.15;34.46
44481;BME280;30184;42.018;23.670;2022-07-25T09:55:10;91325.09;;;28.13;34.90
44481;BME280;30184;42.018;23.670;2022-07-25T09:57:40;91326.19;;;28.31;34.82
44481;BME280;30184;42.018;23.670;2022-07-25T10:00:13;91379.19;;;28.59;36.57
44481;BME280;30184;42.018;23.670;2022-07-25T10:02:49;91201.97;;;27.32;35.69
44481;BME280;30184;42.018;23.670;2022-07-25T10:05:29;91480.22;;;29.00;35.98
44481;BME280;30184;42.018;23.670;2022-07-25T10:07:59;91343.50;;;28.37;33.49
44481;BME280;30184;42.018;23.670;2022-07-25T10:10:38;91444.78;;;29.30;34.52
44481;BME280;30184;42.018;23.670;2022-07-25T10:13:10;91287.09;;;28.31;33.95
44481;BME280;30184;42.018;23.670;2022-07-25T10:15:43;91475.59;;;29.38;33.45
44481;BME280;30184;42.018;23.670;2022-07-25T10:18:13;91251.41;;;27.80;36.06
44481;BME280;30184;42.018;23.670;2022-07-25T10:20:45;91202.41;;;27.64;34.49
44481;BME280;30184;42.018;23.670;2022-07-25T10:23:20;91275.78;;;28.73;34.72
44481;BME280;30184;42.018;23.670;2022-07-25T10:26:07;91430.63;;;29.80;35.00
44481;BME280;30184;42.018;23.670;2022-07-25T10:28:40;91203.22;;;27.72;34.84
44481;BME280;30184;42.018;23.670;2022-07-25T10:31:21;91420.13;;;29.57;32.84
44481;BME280;30184;42.018;23.670;2022-07-25T10:33:52;91272.59;;;28.69;33.95
44481;BME280;30184;42.018;23.670;2022-07-25T10:36:23;91223.22;;;28.20;33.05
44481;BME280;30184;42.018;23.670;2022-07-25T10:38:56;91387.50;;;29.09;32.54
44481;BME280;30184;42.018;23.670;2022-07-25T10:41:27;91465.97;;;30.05;33.85
44481;BME280;30184;42.018;23.670;2022-07-25T10:43:59;91344.63;;;29.50;31.75
44481;BME280;30184;42.018;23.670;2022-07-25T10:46:34;91152.84;;;28.42;31.29
44481;BME280;30184;42.018;23.670;2022-07-25T10:49:16;91075.31;;;27.61;31.05
44481;BME280;30184;42.018;23.670;2022-07-25T10:51:53;91413.03;;;30.30;31.88
44481;BME280;30184;42.018;23.670;2022-07-25T10:54:23;91226.34;;;28.88;31.87
44481;BME280;30184;42.018;23.670;2022-07-25T10:56:56;91402.03;;;30.55;32.56
44481;BME280;30184;42.018;23.670;2022-07-25T10:59:31;91408.91;;;30.69;31.22
44481;BME280;30184;42.018;23.670;2022-07-25T11:02:01;91339.06;;;29.65;30.56
44481;BME280;30184;42.018;23.670;2022-07-25T11:04:31;91381.88;;;30.57;30.36
44481;BME280;30184;42.018;23.670;2022-07-25T11:07:07;91143.09;;;28.94;31.12
44481;BME280;30184;42.018;23.670;2022-07-25T11:09:36;91217.34;;;29.56;31.48
44481;BME280;30184;42.018;23.670;2022-07-25T11:12:07;91346.56;;;30.31;32.08
44481;BME280;30184;42.018;23.670;2022-07-25T11:14:39;91364.13;;;30.47;29.68
44481;BME280;30184;42.018;23.670;2022-07-25T11:17:12;91342.28;;;30.07;29.42
44481;BME280;30184;42.018;23.670;2022-07-25T11:19:42;91220.03;;;29.11;29.88
44481;BME280;30184;42.018;23.670;2022-07-25T11:22:12;91069.25;;;28.37;31.19
44481;BME280;30184;42.018;23.670;2022-07-25T11:24:45;91377.06;;;31.20;29.70
44481;BME280;30184;42.018;23.670;2022-07-25T11:27:21;91467.34;;;30.96;30.18
44481;BME280;30184;42.018;23.670;2022-07-25T11:29:51;91312.75;;;30.74;30.33
44481;BME280;30184;42.018;23.670;2022-07-25T11:32:21;91082.53;;;28.67;30.52
44481;BME280;30184;42.018;23.670;2022-07-25T11:34:52;91379.16;;;31.12;30.41
44481;BME280;30184;42.018;23.670;2022-07-25T11:37:24;91139.75;;;29.11;30.03
44481;BME280;30184;42.018;23.670;2022-07-25T11:39:53;91171.81;;;29.33;29.61
44481;BME280;30184;42.018;23.670;2022-07-25T11:42:24;91048.47;;;28.68;30.15
44481;BME280;30184;42.018;23.670;2022-07-25T11:44:55;90989.78;;;28.15;29.87
44481;BME280;30184;42.018;23.670;2022-07-25T11:47:25;91270.28;;;29.92;29.41
44481;BME280;30184;42.018;23.670;2022-07-25T11:49:57;91076.75;;;28.49;29.27
44481;BME280;30184;42.018;23.670;2022-07-25T11:52:29;91231.72;;;28.86;28.95
44481;BME280;30184;42.018;23.670;2022-07-25T11:54:59;91290.59;;;29.70;29.44
44481;BME280;30184;42.018;23.670;2022-07-25T11:57:32;91147.94;;;28.28;30.23
44481;BME280;30184;42.018;23.670;2022-07-25T12:00:03;91240.72;;;29.08;29.43
44481;BME280;30184;42.018;23.670;2022-07-25T12:02:37;91170.22;;;28.20;30.29
44481;BME280;30184;42.018;23.670;2022-07-25T12:05:08;91242.28;;;28.73;29.44
44481;BME280;30184;42.018;23.670;2022-07-25T12:07:40;90969.28;;;27.46;30.80
44481;BME280;30184;42.018;23.670;2022-07-25T12:10:13;91260.84;;;29.06;30.13
44481;BME280;30184;42.018;23.670;2022-07-25T12:12:48;91055.13;;;27.47;30.18
44481;BME280;30184;42.018;23.670;2022-07-25T12:15:20;91285.19;;;29.64;30.64
44481;BME280;30184;42.018;23.670;2022-07-25T12:17:51;91023.88;;;27.70;30.01
44481;BME280;30184;42.018;23.670;2022-07-25T12:20:22;91006.53;;;27.56;30.24
44481;BME280;30184;42.018;23.670;2022-07-25T12:22:54;91031.31;;;27.75;29.13
44481;BME280;30184;42.018;23.670;2022-07-25T12:25:24;90960.03;;;27.51;29.11
44481;BME280;30184;42.018;23.670;2022-07-25T12:28:01;90954.22;;;27.85;28.36
44481;BME280;30184;42.018;23.670;2022-07-25T12:30:31;90983.38;;;27.76;28.12
44481;BME280;30184;42.018;23.670;2022-07-25T12:33:01;91114.03;;;28.82;28.28
44481;BME280;30184;42.018;23.670;2022-07-25T12:35:33;91352.72;;;30.60;28.44
44481;BME280;30184;42.018;23.670;2022-07-25T12:38:04;90982.22;;;27.72;28.14
44481;BME280;30184;42.018;23.670;2022-07-25T12:40:34;90947.19;;;28.07;28.64
44481;BME280;30184;42.018;23.670;2022-07-25T12:43:06;91108.84;;;29.24;28.05
44481;BME280;30184;42.018;23.670;2022-07-25T12:45:38;91102.91;;;28.98;28.02
44481;BME280;30184;42.018;23.670;2022-07-25T12:48:09;91029.28;;;28.57;27.97
44481;BME280;30184;42.018;23.670;2022-07-25T12:50:41;91089.88;;;29.00;27.91
44481;BME280;30184;42.018;23.670;2022-07-25T12:53:10;91387.81;;;30.76;28.04
44481;BME280;30184;42.018;23.670;2022-07-25T12:55:40;91212.09;;;29.91;28.43
44481;BME280;30184;42.018;23.670;2022-07-25T12:58:11;91289.28;;;30.32;28.51
44481;BME280;30184;42.018;23.670;2022-07-25T13:00:41;91155.06;;;29.18;28.50
44481;BME280;30184;42.018;23.670;2022-07-25T13:03:12;90936.59;;;28.13;27.74
44481;BME280;30184;42.018;23.670;2022-07-25T13:05:41;91050.38;;;28.96;28.64
44481;BME280;30184;42.018;23.670;2022-07-25T13:08:11;91016.09;;;28.73;28.20